sensor_id;sensor_type;location;lat;lon;timestamp;temperature;humidity
62583;DHT22;48641;51.676;5.808;2023-04-03T00:02:17;13.90;65.40
62583;DHT22;48641;51.676;5.808;2023-04-03T00:04:42;13.90;65.40
62583;DHT22;48641;51.676;5.808;2023-04-03T00:07:08;13.90;65.40
62583;DHT22;48641;51.676;5.808;2023-04-03T00:09:33;13.90;65.40
62583;DHT22;48641;51.676;5.808;2023-04-03T00:11:59;13.90;65.40
62583;DHT22;48641;51.676;5.808;2023-04-03T00:14:25;13.90;65.50
62583;DHT22;48641;51.676;5.808;2023-04-03T00:16:51;13.90;65.50
62583;DHT22;48641;51.676;5.808;2023-04-03T00:19:17;13.90;65.50
62583;DHT22;48641;51.676;5.808;2023-04-03T00:21:43;13.80;65.40
62583;DHT22;48641;51.676;5.808;2023-04-03T00:24:09;13.90;65.50
62583;DHT22;48641;51.676;5.808;2023-04-03T00:26:34;13.90;65.50
62583;DHT22;48641;51.676;5.808;2023-04-03T00:29:00;13.90;65.50
62583;DHT22;48641;51.676;5.808;2023-04-03T00:31:25;13.90;65.50
62583;DHT22;48641;51.676;5.808;2023-04-03T00:33:51;13.80;65.40
62583;DHT22;48641;51.676;5.808;2023-04-03T00:36:16;13.80;65.40
62583;DHT22;48641;51.676;5.808;2023-04-03T00:38:42;13.90;65.40
62583;DHT22;48641;51.676;5.808;2023-04-03T00:41:08;13.80;65.40
62583;DHT22;48641;51.676;5.808;2023-04-03T00:43:33;13.80;65.30
62583;DHT22;48641;51.676;5.808;2023-04-03T00:46:00;13.80;65.30
62583;DHT22;48641;51.676;5.808;2023-04-03T00:51:08;13.80;65.30
62583;DHT22;48641;51.676;5.808;2023-04-03T00:53:41;13.80;65.30
62583;DHT22;48641;51.676;5.808;2023-04-03T00:56:11;13.80;65.30
62583;DHT22;48641;51.676;5.808;2023-04-03T00:58:41;13.80;65.30
62583;DHT22;48641;51.676;5.808;2023-04-03T01:01:12;13.80;65.40
62583;DHT22;48641;51.676;5.808;2023-04-03T01:03:39;13.80;65.40
62583;DHT22;48641;51.676;5.808;2023-04-03T01:06:05;13.80;65.30
62583;DHT22;48641;51.676;5.808;2023-04-03T01:08:31;13.80;65.30
62583;DHT22;48641;51.676;5.808;2023-04-03T01:10:57;13.80;65.30
62583;DHT22;48641;51.676;5.808;2023-04-03T01:13:29;13.80;65.30
62583;DHT22;48641;51.676;5.808;2023-04-03T01:15:55;13.80;65.30
62583;DHT22;48641;51.676;5.808;2023-04-03T01:18:23;13.80;65.30
62583;DHT22;48641;51.676;5.808;2023-04-03T01:25:52;13.80;65.30
62583;DHT22;48641;51.676;5.808;2023-04-03T01:33:45;13.70;65.30
62583;DHT22;48641;51.676;5.808;2023-04-03T01:36:16;13.70;65.30
62583;DHT22;48641;51.676;5.808;2023-04-03T01:38:42;13.70;65.30
62583;DHT22;48641;51.676;5.808;2023-04-03T01:41:07;13.70;65.30
62583;DHT22;48641;51.676;5.808;2023-04-03T01:43:33;13.70;65.30
62583;DHT22;48641;51.676;5.808;2023-04-03T01:45:59;13.70;65.30
62583;DHT22;48641;51.676;5.808;2023-04-03T01:48:24;13.70;65.30
62583;DHT22;48641;51.676;5.808;2023-04-03T01:50:50;13.70;65.30
62583;DHT22;48641;51.676;5.808;2023-04-03T01:53:16;13.70;65.20
62583;DHT22;48641;51.676;5.808;2023-04-03T01:55:41;13.70;65.20
62583;DHT22;48641;51.676;5.808;2023-04-03T01:58:07;13.70;65.20
62583;DHT22;48641;51.676;5.808;2023-04-03T02:00:32;13.70;65.20
62583;DHT22;48641;51.676;5.808;2023-04-03T02:02:58;13.70;65.20
62583;DHT22;48641;51.676;5.808;2023-04-03T02:05:23;13.70;65.20
62583;DHT22;48641;51.676;5.808;2023-04-03T02:07:49;13.70;65.20
62583;DHT22;48641;51.676;5.808;2023-04-03T02:10:15;13.70;65.20
62583;DHT22;48641;51.676;5.808;2023-04-03T02:12:41;13.70;65.10
62583;DHT22;48641;51.676;5.808;2023-04-03T02:15:07;13.70;65.20
62583;DHT22;48641;51.676;5.808;2023-04-03T02:17:33;13.70;65.10
62583;DHT22;48641;51.676;5.808;2023-04-03T02:19:59;13.70;65.20
62583;DHT22;48641;51.676;5.808;2023-04-03T02:22:25;13.60;65.10
62583;DHT22;48641;51.676;5.808;2023-04-03T02:24:51;13.60;65.10
62583;DHT22;48641;51.676;5.808;2023-04-03T02:27:17;13.60;65.10
62583;DHT22;48641;51.676;5.808;2023-04-03T02:29:42;13.60;65.10
62583;DHT22;48641;51.676;5.808;2023-04-03T02:32:08;13.60;65.10
62583;DHT22;48641;51.676;5.808;2023-04-03T02:34:34;13.60;65.10
62583;DHT22;48641;51.676;5.808;2023-04-03T02:36:59;13.60;65.10
62583;DHT22;48641;51.676;5.808;2023-04-03T02:39:25;13.60;65.10
62583;DHT22;48641;51.676;5.808;2023-04-03T02:41:51;13.60;65.10
62583;DHT22;48641;51.676;5.808;2023-04-03T02:44:17;13.60;65.10
62583;DHT22;48641;51.676;5.808;2023-04-03T02:46:43;13.60;65.00
62583;DHT22;48641;51.676;5.808;2023-04-03T02:49:08;13.60;65.10
62583;DHT22;48641;51.676;5.808;2023-04-03T02:51:34;13.60;65.10
62583;DHT22;48641;51.676;5.808;2023-04-03T02:53:59;13.60;65.10
62583;DHT22;48641;51.676;5.808;2023-04-03T02:56:25;13.60;65.10
62583;DHT22;48641;51.676;5.808;2023-04-03T02:58:52;13.60;65.10
62583;DHT22;48641;51.676;5.808;2023-04-03T03:01:18;13.60;65.20
62583;DHT22;48641;51.676;5.808;2023-04-03T03:03:43;13.60;65.20
62583;DHT22;48641;51.676;5.808;2023-04-03T03:06:11;13.60;65.20
62583;DHT22;48641;51.676;5.808;2023-04-03T03:08:37;13.60;65.10
62583;DHT22;48641;51.676;5.808;2023-04-03T03:11:04;13.60;65.20
62583;DHT22;48641;51.676;5.808;2023-04-03T03:13:30;13.60;65.20
62583;DHT22;48641;51.676;5.808;2023-04-03T03:15:56;13.60;65.10
62583;DHT22;48641;51.676;5.808;2023-04-03T03:18:22;13.60;65.10
62583;DHT22;48641;51.676;5.808;2023-04-03T03:20:56;13.60;65.10
62583;DHT22;48641;51.676;5.808;2023-04-03T03:23:23;13.60;65.10
62583;DHT22;48641;51.676;5.808;2023-04-03T03:26:01;13.60;65.10
62583;DHT22;48641;51.676;5.808;2023-04-03T03:28:27;13.60;65.10
62583;DHT22;48641;51.676;5.808;2023-04-03T03:30:52;13.50;65.00
62583;DHT22;48641;51.676;5.808;2023-04-03T03:33:19;13.60;65.10
62583;DHT22;48641;51.676;5.808;2023-04-03T03:35:44;13.50;65.00
62583;DHT22;48641;51.676;5.808;2023-04-03T03:38:10;13.50;65.10
62583;DHT22;48641;51.676;5.808;2023-04-03T03:40:36;13.50;65.10
62583;DHT22;48641;51.676;5.808;2023-04-03T03:43:01;13.50;65.00
62583;DHT22;48641;51.676;5.808;2023-04-03T03:45:27;13.50;65.10
62583;DHT22;48641;51.676;5.808;2023-04-03T03:47:53;13.50;65.10
62583;DHT22;48641;51.676;5.808;2023-04-03T03:50:18;13.50;65.10
62583;DHT22;48641;51.676;5.808;2023-04-03T03:52:44;13.50;65.00
62583;DHT22;48641;51.676;5.808;2023-04-03T03:55:10;13.50;65.00
62583;DHT22;48641;51.676;5.808;2023-04-03T03:57:36;13.50;65.00
62583;DHT22;48641;51.676;5.808;2023-04-03T04:00:02;13.50;65.10
62583;DHT22;48641;51.676;5.808;2023-04-03T04:02:28;13.50;65.00
62583;DHT22;48641;51.676;5.808;2023-04-03T04:04:54;13.50;65.00
62583;DHT22;48641;51.676;5.808;2023-04-03T04:07:20;13.50;65.10
62583;DHT22;48641;51.676;5.808;2023-04-03T04:09:45;13.50;65.00
62583;DHT22;48641;51.676;5.808;2023-04-03T04:12:11;13.50;65.00
62583;DHT22;48641;51.676;5.808;2023-04-03T04:14:37;13.40;64.90
62583;DHT22;48641;51.676;5.808;2023-04-03T04:17:02;13.40;64.90
62583;DHT22;48641;51.676;5.808;2023-04-03T04:19:28;13.50;65.00
62583;DHT22;48641;51.676;5.808;2023-04-03T04:21:54;13.50;65.00
62583;DHT22;48641;51.676;5.808;2023-04-03T04:24:20;13.50;65.00
62583;DHT22;48641;51.676;5.808;2023-04-03T04:26:45;13.50;65.00
62583;DHT22;48641;51.676;5.808;2023-04-03T04:29:11;13.40;64.90
62583;DHT22;48641;51.676;5.808;2023-04-03T04:31:36;13.40;64.90
62583;DHT22;48641;51.676;5.808;2023-04-03T04:34:02;13.40;64.90
62583;DHT22;48641;51.676;5.808;2023-04-03T04:36:28;13.40;64.90
62583;DHT22;48641;51.676;5.808;2023-04-03T04:38:53;13.40;64.90
62583;DHT22;48641;51.676;5.808;2023-04-03T04:41:22;13.40;65.00
62583;DHT22;48641;51.676;5.808;2023-04-03T04:43:49;13.40;64.90
62583;DHT22;48641;51.676;5.808;2023-04-03T04:46:15;13.40;65.00
62583;DHT22;48641;51.676;5.808;2023-04-03T04:48:41;13.40;64.90
62583;DHT22;48641;51.676;5.808;2023-04-03T04:51:06;13.40;64.90
62583;DHT22;48641;51.676;5.808;2023-04-03T04:53:32;13.30;64.90
62583;DHT22;48641;51.676;5.808;2023-04-03T04:55:58;13.40;65.00
62583;DHT22;48641;51.676;5.808;2023-04-03T04:58:24;13.40;64.90
62583;DHT22;48641;51.676;5.808;2023-04-03T05:00:49;13.40;64.90
62583;DHT22;48641;51.676;5.808;2023-04-03T05:03:15;13.40;65.00
62583;DHT22;48641;51.676;5.808;2023-04-03T05:05:41;13.40;64.90
62583;DHT22;48641;51.676;5.808;2023-04-03T05:08:06;13.40;64.90
62583;DHT22;48641;51.676;5.808;2023-04-03T05:10:34;13.40;64.90
62583;DHT22;48641;51.676;5.808;2023-04-03T05:12:59;13.40;65.00
62583;DHT22;48641;51.676;5.808;2023-04-03T05:15:25;13.30;64.90
62583;DHT22;48641;51.676;5.808;2023-04-03T05:17:51;13.40;64.90
62583;DHT22;48641;51.676;5.808;2023-04-03T05:20:17;13.30;64.90
62583;DHT22;48641;51.676;5.808;2023-04-03T05:22:42;13.30;64.90
62583;DHT22;48641;51.676;5.808;2023-04-03T05:25:08;13.30;64.80
62583;DHT22;48641;51.676;5.808;2023-04-03T05:27:34;13.30;64.80
62583;DHT22;48641;51.676;5.808;2023-04-03T05:30:00;13.30;64.80
62583;DHT22;48641;51.676;5.808;2023-04-03T05:32:25;13.30;64.80
62583;DHT22;48641;51.676;5.808;2023-04-03T05:34:54;13.30;64.80
62583;DHT22;48641;51.676;5.808;2023-04-03T05:37:20;13.30;64.80
62583;DHT22;48641;51.676;5.808;2023-04-03T05:39:46;13.30;64.80
62583;DHT22;48641;51.676;5.808;2023-04-03T05:42:11;13.30;64.80
62583;DHT22;48641;51.676;5.808;2023-04-03T05:44:38;13.30;64.80
62583;DHT22;48641;51.676;5.808;2023-04-03T05:47:04;13.30;64.80
62583;DHT22;48641;51.676;5.808;2023-04-03T05:49:30;13.30;64.90
62583;DHT22;48641;51.676;5.808;2023-04-03T05:51:56;13.30;64.80
62583;DHT22;48641;51.676;5.808;2023-04-03T05:54:27;13.30;64.80
62583;DHT22;48641;51.676;5.808;2023-04-03T05:56:53;13.30;64.90
62583;DHT22;48641;51.676;5.808;2023-04-03T05:59:20;13.30;64.90
62583;DHT22;48641;51.676;5.808;2023-04-03T06:01:46;13.30;64.80
62583;DHT22;48641;51.676;5.808;2023-04-03T06:04:12;13.30;64.80
62583;DHT22;48641;51.676;5.808;2023-04-03T06:06:52;13.20;64.80
62583;DHT22;48641;51.676;5.808;2023-04-03T06:09:18;13.20;64.80
62583;DHT22;48641;51.676;5.808;2023-04-03T06:11:44;13.20;64.80
62583;DHT22;48641;51.676;5.808;2023-04-03T06:14:10;13.20;65.10
62583;DHT22;48641;51.676;5.808;2023-04-03T06:16:36;13.20;65.10
62583;DHT22;48641;51.676;5.808;2023-04-03T06:19:02;13.20;65.10
62583;DHT22;48641;51.676;5.808;2023-04-03T06:21:32;13.20;65.10
62583;DHT22;48641;51.676;5.808;2023-04-03T06:23:57;13.20;65.00
62583;DHT22;48641;51.676;5.808;2023-04-03T06:26:23;13.20;65.00
62583;DHT22;48641;51.676;5.808;2023-04-03T06:28:49;13.20;65.00
62583;DHT22;48641;51.676;5.808;2023-04-03T06:31:14;13.20;65.00
62583;DHT22;48641;51.676;5.808;2023-04-03T06:33:40;13.20;65.00
62583;DHT22;48641;51.676;5.808;2023-04-03T06:36:07;13.20;65.00
62583;DHT22;48641;51.676;5.808;2023-04-03T06:38:33;13.20;64.90
62583;DHT22;48641;51.676;5.808;2023-04-03T06:40:59;13.20;64.90
62583;DHT22;48641;51.676;5.808;2023-04-03T06:43:25;13.20;64.90
62583;DHT22;48641;51.676;5.808;2023-04-03T06:45:51;13.20;64.80
62583;DHT22;48641;51.676;5.808;2023-04-03T06:48:17;13.20;64.80
62583;DHT22;48641;51.676;5.808;2023-04-03T06:50:43;13.20;64.90
62583;DHT22;48641;51.676;5.808;2023-04-03T06:53:09;13.20;64.90
62583;DHT22;48641;51.676;5.808;2023-04-03T06:55:35;13.20;64.90
62583;DHT22;48641;51.676;5.808;2023-04-03T06:58:01;13.20;64.90
62583;DHT22;48641;51.676;5.808;2023-04-03T07:00:27;13.20;64.80
62583;DHT22;48641;51.676;5.808;2023-04-03T07:02:53;13.20;64.80
62583;DHT22;48641;51.676;5.808;2023-04-03T07:05:18;13.20;64.90
62583;DHT22;48641;51.676;5.808;2023-04-03T07:07:44;13.20;64.80
62583;DHT22;48641;51.676;5.808;2023-04-03T07:10:10;13.20;64.80
62583;DHT22;48641;51.676;5.808;2023-04-03T07:12:36;13.20;64.80
62583;DHT22;48641;51.676;5.808;2023-04-03T07:15:04;13.20;64.90
62583;DHT22;48641;51.676;5.808;2023-04-03T07:17:30;13.20;65.80
62583;DHT22;48641;51.676;5.808;2023-04-03T07:19:56;13.20;64.80
62583;DHT22;48641;51.676;5.808;2023-04-03T07:22:22;13.20;64.80
62583;DHT22;48641;51.676;5.808;2023-04-03T07:24:48;13.20;64.80
62583;DHT22;48641;51.676;5.808;2023-04-03T07:27:13;13.20;64.80
62583;DHT22;48641;51.676;5.808;2023-04-03T07:29:39;13.20;64.80
62583;DHT22;48641;51.676;5.808;2023-04-03T07:32:05;13.20;64.70
62583;DHT22;48641;51.676;5.808;2023-04-03T07:34:32;13.20;64.80
62583;DHT22;48641;51.676;5.808;2023-04-03T07:36:58;13.20;64.80
62583;DHT22;48641;51.676;5.808;2023-04-03T07:39:25;13.20;64.90
62583;DHT22;48641;51.676;5.808;2023-04-03T07:41:51;13.20;64.80
62583;DHT22;48641;51.676;5.808;2023-04-03T07:44:17;13.20;64.80
62583;DHT22;48641;51.676;5.808;2023-04-03T07:46:43;13.20;64.80
62583;DHT22;48641;51.676;5.808;2023-04-03T07:49:08;13.10;64.70
62583;DHT22;48641;51.676;5.808;2023-04-03T07:51:34;13.10;64.70
62583;DHT22;48641;51.676;5.808;2023-04-03T07:54:00;13.10;64.80
62583;DHT22;48641;51.676;5.808;2023-04-03T07:56:25;13.20;65.10
62583;DHT22;48641;51.676;5.808;2023-04-03T07:58:51;13.10;65.00
62583;DHT22;48641;51.676;5.808;2023-04-03T08:01:16;13.10;64.90
62583;DHT22;48641;51.676;5.808;2023-04-03T08:03:42;13.10;64.80
62583;DHT22;48641;51.676;5.808;2023-04-03T08:06:08;13.10;64.80
62583;DHT22;48641;51.676;5.808;2023-04-03T08:08:34;13.10;64.80
62583;DHT22;48641;51.676;5.808;2023-04-03T08:11:01;13.10;64.80
62583;DHT22;48641;51.676;5.808;2023-04-03T08:13:28;13.10;64.60
62583;DHT22;48641;51.676;5.808;2023-04-03T08:15:54;13.10;64.50
62583;DHT22;48641;51.676;5.808;2023-04-03T08:18:23;13.10;64.50
62583;DHT22;48641;51.676;5.808;2023-04-03T08:20:50;13.10;64.50
62583;DHT22;48641;51.676;5.808;2023-04-03T08:23:17;13.10;64.50
62583;DHT22;48641;51.676;5.808;2023-04-03T08:25:43;13.10;64.60
62583;DHT22;48641;51.676;5.808;2023-04-03T08:28:10;13.10;64.50
62583;DHT22;48641;51.676;5.808;2023-04-03T08:30:39;13.10;64.60
62583;DHT22;48641;51.676;5.808;2023-04-03T08:33:05;13.10;64.50
62583;DHT22;48641;51.676;5.808;2023-04-03T08:35:31;13.10;64.50
62583;DHT22;48641;51.676;5.808;2023-04-03T08:37:57;13.10;64.50
62583;DHT22;48641;51.676;5.808;2023-04-03T08:40:23;13.10;64.50
62583;DHT22;48641;51.676;5.808;2023-04-03T08:45:47;13.10;65.40
62583;DHT22;48641;51.676;5.808;2023-04-03T08:50:46;13.10;64.60
62583;DHT22;48641;51.676;5.808;2023-04-03T08:53:19;13.10;64.60
62583;DHT22;48641;51.676;5.808;2023-04-03T08:55:51;13.10;65.50
62583;DHT22;48641;51.676;5.808;2023-04-03T08:58:20;13.10;64.60
62583;DHT22;48641;51.676;5.808;2023-04-03T09:01:10;13.10;64.70
62583;DHT22;48641;51.676;5.808;2023-04-03T09:03:40;13.10;64.60
62583;DHT22;48641;51.676;5.808;2023-04-03T09:06:13;13.00;64.60
62583;DHT22;48641;51.676;5.808;2023-04-03T09:14:33;13.10;64.70
62583;DHT22;48641;51.676;5.808;2023-04-03T09:17:17;13.10;64.80
62583;DHT22;48641;51.676;5.808;2023-04-03T09:19:58;13.00;64.70
62583;DHT22;48641;51.676;5.808;2023-04-03T09:22:31;13.00;64.70
62583;DHT22;48641;51.676;5.808;2023-04-03T09:25:15;13.00;64.90
62583;DHT22;48641;51.676;5.808;2023-04-03T09:27:41;13.00;64.70
62583;DHT22;48641;51.676;5.808;2023-04-03T09:30:17;13.00;64.80
62583;DHT22;48641;51.676;5.808;2023-04-03T09:32:45;13.00;64.70
62583;DHT22;48641;51.676;5.808;2023-04-03T09:35:24;13.00;64.70
62583;DHT22;48641;51.676;5.808;2023-04-03T09:37:53;13.10;64.60
62583;DHT22;48641;51.676;5.808;2023-04-03T09:40:28;13.00;64.60
62583;DHT22;48641;51.676;5.808;2023-04-03T09:42:56;13.00;64.60
62583;DHT22;48641;51.676;5.808;2023-04-03T09:45:34;13.00;64.60
62583;DHT22;48641;51.676;5.808;2023-04-03T09:48:08;13.10;64.40
62583;DHT22;48641;51.676;5.808;2023-04-03T09:50:35;13.00;63.70
62583;DHT22;48641;51.676;5.808;2023-04-03T09:53:41;13.10;63.80
62583;DHT22;48641;51.676;5.808;2023-04-03T09:58:44;13.10;63.90
62583;DHT22;48641;51.676;5.808;2023-04-03T10:01:31;13.00;64.00
62583;DHT22;48641;51.676;5.808;2023-04-03T10:04:12;13.10;64.00
62583;DHT22;48641;51.676;5.808;2023-04-03T10:09:22;13.00;64.10
62583;DHT22;48641;51.676;5.808;2023-04-03T10:14:57;13.10;64.00
62583;DHT22;48641;51.676;5.808;2023-04-03T10:20:00;13.10;64.20
62583;DHT22;48641;51.676;5.808;2023-04-03T10:28:00;13.10;64.10
62583;DHT22;48641;51.676;5.808;2023-04-03T10:41:39;13.20;63.90
62583;DHT22;48641;51.676;5.808;2023-04-03T10:47:24;13.20;63.90
62583;DHT22;48641;51.676;5.808;2023-04-03T10:57:49;13.20;63.80
62583;DHT22;48641;51.676;5.808;2023-04-03T11:00:19;13.20;63.80
62583;DHT22;48641;51.676;5.808;2023-04-03T11:02:52;13.30;63.80
62583;DHT22;48641;51.676;5.808;2023-04-03T11:07:55;13.30;63.80
62583;DHT22;48641;51.676;5.808;2023-04-03T11:10:42;13.30;63.70
62583;DHT22;48641;51.676;5.808;2023-04-03T11:13:17;13.30;63.50
62583;DHT22;48641;51.676;5.808;2023-04-03T11:15:44;13.30;63.60
62583;DHT22;48641;51.676;5.808;2023-04-03T11:18:17;13.40;63.60
62583;DHT22;48641;51.676;5.808;2023-04-03T11:21:03;13.40;63.60
62583;DHT22;48641;51.676;5.808;2023-04-03T11:23:34;13.40;63.60
62583;DHT22;48641;51.676;5.808;2023-04-03T11:26:29;13.40;63.70
62583;DHT22;48641;51.676;5.808;2023-04-03T11:29:22;13.40;63.60
62583;DHT22;48641;51.676;5.808;2023-04-03T11:32:20;13.40;63.70
62583;DHT22;48641;51.676;5.808;2023-04-03T11:34:53;13.50;63.70
62583;DHT22;48641;51.676;5.808;2023-04-03T11:40:06;13.40;63.80
62583;DHT22;48641;51.676;5.808;2023-04-03T11:42:40;13.50;63.80
62583;DHT22;48641;51.676;5.808;2023-04-03T11:45:36;13.50;63.80
62583;DHT22;48641;51.676;5.808;2023-04-03T11:50:47;13.50;63.80
62583;DHT22;48641;51.676;5.808;2023-04-03T11:58:15;13.50;63.60
62583;DHT22;48641;51.676;5.808;2023-04-03T12:08:44;13.60;63.70
62583;DHT22;48641;51.676;5.808;2023-04-03T12:16:50;13.60;63.70
62583;DHT22;48641;51.676;5.808;2023-04-03T12:19:27;13.60;63.80
62583;DHT22;48641;51.676;5.808;2023-04-03T12:24:24;13.60;63.80
62583;DHT22;48641;51.676;5.808;2023-04-03T12:26:51;13.70;63.80
62583;DHT22;48641;51.676;5.808;2023-04-03T12:35:27;13.70;63.70
62583;DHT22;48641;51.676;5.808;2023-04-03T12:38:16;13.70;63.60
62583;DHT22;48641;51.676;5.808;2023-04-03T12:44:15;13.70;63.80
62583;DHT22;48641;51.676;5.808;2023-04-03T12:46:46;13.70;63.80
62583;DHT22;48641;51.676;5.808;2023-04-03T12:51:48;13.80;63.90
62583;DHT22;48641;51.676;5.808;2023-04-03T12:54:35;13.70;64.80
62583;DHT22;48641;51.676;5.808;2023-04-03T12:59:36;13.80;63.70
62583;DHT22;48641;51.676;5.808;2023-04-03T13:02:15;13.80;63.80
62583;DHT22;48641;51.676;5.808;2023-04-03T13:04:44;13.80;63.90
62583;DHT22;48641;51.676;5.808;2023-04-03T13:07:22;13.80;63.90
62583;DHT22;48641;51.676;5.808;2023-04-03T13:12:35;13.80;63.70
62583;DHT22;48641;51.676;5.808;2023-04-03T13:15:12;13.80;63.80
62583;DHT22;48641;51.676;5.808;2023-04-03T13:17:42;13.80;63.90
62583;DHT22;48641;51.676;5.808;2023-04-03T13:20:23;13.80;63.80
62583;DHT22;48641;51.676;5.808;2023-04-03T13:22:56;13.80;63.90
62583;DHT22;48641;51.676;5.808;2023-04-03T13:25:24;13.80;63.90
62583;DHT22;48641;51.676;5.808;2023-04-03T13:27:50;13.80;64.00
62583;DHT22;48641;51.676;5.808;2023-04-03T13:30:29;13.80;63.90
62583;DHT22;48641;51.676;5.808;2023-04-03T13:32:58;13.80;64.00
62583;DHT22;48641;51.676;5.808;2023-04-03T13:38:00;13.80;64.00
62583;DHT22;48641;51.676;5.808;2023-04-03T13:40:25;13.80;64.00
62583;DHT22;48641;51.676;5.808;2023-04-03T13:43:13;13.80;63.90
62583;DHT22;48641;51.676;5.808;2023-04-03T13:46:35;13.90;64.00
62583;DHT22;48641;51.676;5.808;2023-04-03T13:48:44;13.90;64.00
62583;DHT22;48641;51.676;5.808;2023-04-03T13:58:56;13.90;64.00
62583;DHT22;48641;51.676;5.808;2023-04-03T14:01:23;13.90;64.10
62583;DHT22;48641;51.676;5.808;2023-04-03T14:04:00;13.90;64.00
62583;DHT22;48641;51.676;5.808;2023-04-03T14:06:26;13.90;64.00
62583;DHT22;48641;51.676;5.808;2023-04-03T14:08:52;13.90;64.00
62583;DHT22;48641;51.676;5.808;2023-04-03T14:11:26;13.90;64.00
62583;DHT22;48641;51.676;5.808;2023-04-03T14:13:53;13.90;63.80
62583;DHT22;48641;51.676;5.808;2023-04-03T14:16:24;13.90;63.90
62583;DHT22;48641;51.676;5.808;2023-04-03T14:18:51;13.90;64.00
62583;DHT22;48641;51.676;5.808;2023-04-03T14:21:19;13.90;64.00
62583;DHT22;48641;51.676;5.808;2023-04-03T14:23:45;13.90;64.00
62583;DHT22;48641;51.676;5.808;2023-04-03T14:26:23;13.90;64.10
62583;DHT22;48641;51.676;5.808;2023-04-03T14:28:52;13.90;64.10
62583;DHT22;48641;51.676;5.808;2023-04-03T14:31:19;13.90;64.20
62583;DHT22;48641;51.676;5.808;2023-04-03T14:33:45;13.90;65.20
62583;DHT22;48641;51.676;5.808;2023-04-03T14:36:22;13.90;64.20
62583;DHT22;48641;51.676;5.808;2023-04-03T14:38:50;13.90;64.20
62583;DHT22;48641;51.676;5.808;2023-04-03T14:41:19;13.90;64.20
62583;DHT22;48641;51.676;5.808;2023-04-03T14:43:45;13.90;64.40
62583;DHT22;48641;51.676;5.808;2023-04-03T14:46:21;13.90;64.40
62583;DHT22;48641;51.676;5.808;2023-04-03T14:48:49;13.90;64.70
62583;DHT22;48641;51.676;5.808;2023-04-03T14:51:15;13.90;64.60
62583;DHT22;48641;51.676;5.808;2023-04-03T14:53:42;13.90;64.20
62583;DHT22;48641;51.676;5.808;2023-04-03T14:56:26;13.90;64.20
62583;DHT22;48641;51.676;5.808;2023-04-03T14:59:00;14.00;64.20
62583;DHT22;48641;51.676;5.808;2023-04-03T15:01:27;14.00;64.30
62583;DHT22;48641;51.676;5.808;2023-04-03T15:03:53;14.00;64.30
62583;DHT22;48641;51.676;5.808;2023-04-03T15:06:19;14.00;64.20
62583;DHT22;48641;51.676;5.808;2023-04-03T15:08:47;14.10;64.10
62583;DHT22;48641;51.676;5.808;2023-04-03T15:11:13;14.10;64.10
62583;DHT22;48641;51.676;5.808;2023-04-03T15:13:39;14.10;64.10
62583;DHT22;48641;51.676;5.808;2023-04-03T15:16:11;14.10;63.90
62583;DHT22;48641;51.676;5.808;2023-04-03T15:18:38;14.10;63.90
62583;DHT22;48641;51.676;5.808;2023-04-03T15:21:04;14.10;63.90
62583;DHT22;48641;51.676;5.808;2023-04-03T15:23:30;14.10;63.90
62583;DHT22;48641;51.676;5.808;2023-04-03T15:25:55;14.10;63.70
62583;DHT22;48641;51.676;5.808;2023-04-03T15:28:28;14.10;63.60
62583;DHT22;48641;51.676;5.808;2023-04-03T15:30:55;14.20;63.70
62583;DHT22;48641;51.676;5.808;2023-04-03T15:33:21;14.10;63.70
62583;DHT22;48641;51.676;5.808;2023-04-03T15:35:47;14.20;63.80
62583;DHT22;48641;51.676;5.808;2023-04-03T15:38:12;14.20;63.80
62583;DHT22;48641;51.676;5.808;2023-04-03T15:40:38;14.20;63.80
62583;DHT22;48641;51.676;5.808;2023-04-03T15:43:06;14.10;63.70
62583;DHT22;48641;51.676;5.808;2023-04-03T15:45:32;14.20;63.70
62583;DHT22;48641;51.676;5.808;2023-04-03T15:47:59;14.20;63.70
62583;DHT22;48641;51.676;5.808;2023-04-03T15:50:27;14.20;63.60
62583;DHT22;48641;51.676;5.808;2023-04-03T15:52:53;14.20;63.70
62583;DHT22;48641;51.676;5.808;2023-04-03T15:55:22;14.20;63.80
62583;DHT22;48641;51.676;5.808;2023-04-03T15:57:47;14.20;63.90
62583;DHT22;48641;51.676;5.808;2023-04-03T16:00:13;14.20;64.00
62583;DHT22;48641;51.676;5.808;2023-04-03T16:02:40;14.20;64.00
62583;DHT22;48641;51.676;5.808;2023-04-03T16:05:06;14.20;64.00
62583;DHT22;48641;51.676;5.808;2023-04-03T16:07:32;14.20;64.00
62583;DHT22;48641;51.676;5.808;2023-04-03T16:09:57;14.20;63.90
62583;DHT22;48641;51.676;5.808;2023-04-03T16:12:23;14.20;63.90
62583;DHT22;48641;51.676;5.808;2023-04-03T16:14:49;14.20;63.90
62583;DHT22;48641;51.676;5.808;2023-04-03T16:17:14;14.20;63.80
62583;DHT22;48641;51.676;5.808;2023-04-03T16:19:40;14.20;63.70
62583;DHT22;48641;51.676;5.808;2023-04-03T16:22:06;14.20;63.70
62583;DHT22;48641;51.676;5.808;2023-04-03T16:24:31;14.20;63.70
62583;DHT22;48641;51.676;5.808;2023-04-03T16:26:57;14.20;63.70
62583;DHT22;48641;51.676;5.808;2023-04-03T16:29:23;14.20;63.60
62583;DHT22;48641;51.676;5.808;2023-04-03T16:31:49;14.20;63.60
62583;DHT22;48641;51.676;5.808;2023-04-03T16:34:15;14.20;63.60
62583;DHT22;48641;51.676;5.808;2023-04-03T16:36:41;14.20;63.50
62583;DHT22;48641;51.676;5.808;2023-04-03T16:39:07;14.20;63.40
62583;DHT22;48641;51.676;5.808;2023-04-03T16:41:35;14.20;63.50
62583;DHT22;48641;51.676;5.808;2023-04-03T16:44:00;14.20;63.40
62583;DHT22;48641;51.676;5.808;2023-04-03T16:46:26;14.20;63.60
62583;DHT22;48641;51.676;5.808;2023-04-03T16:48:52;14.20;63.60
62583;DHT22;48641;51.676;5.808;2023-04-03T16:51:17;14.20;63.60
62583;DHT22;48641;51.676;5.808;2023-04-03T16:53:43;14.20;63.70
62583;DHT22;48641;51.676;5.808;2023-04-03T16:56:09;14.20;63.70
62583;DHT22;48641;51.676;5.808;2023-04-03T16:58:34;14.20;63.70
62583;DHT22;48641;51.676;5.808;2023-04-03T17:01:10;14.20;63.60
62583;DHT22;48641;51.676;5.808;2023-04-03T17:03:36;14.20;63.60
62583;DHT22;48641;51.676;5.808;2023-04-03T17:06:02;14.20;63.50
62583;DHT22;48641;51.676;5.808;2023-04-03T17:08:28;14.20;63.50
62583;DHT22;48641;51.676;5.808;2023-04-03T17:10:53;14.20;64.40
62583;DHT22;48641;51.676;5.808;2023-04-03T17:13:20;14.20;63.50
62583;DHT22;48641;51.676;5.808;2023-04-03T17:15:45;14.20;63.50
62583;DHT22;48641;51.676;5.808;2023-04-03T17:18:11;14.20;63.50
62583;DHT22;48641;51.676;5.808;2023-04-03T17:20:37;14.20;63.50
62583;DHT22;48641;51.676;5.808;2023-04-03T17:23:04;14.20;63.50
62583;DHT22;48641;51.676;5.808;2023-04-03T17:25:30;14.20;63.50
62583;DHT22;48641;51.676;5.808;2023-04-03T17:27:55;14.20;64.50
62583;DHT22;48641;51.676;5.808;2023-04-03T17:30:21;14.20;63.60
62583;DHT22;48641;51.676;5.808;2023-04-03T17:32:47;14.20;63.60
62583;DHT22;48641;51.676;5.808;2023-04-03T17:35:13;14.10;63.50
62583;DHT22;48641;51.676;5.808;2023-04-03T17:37:38;14.20;63.60